Time;durP1;ratioP1;P1;durP2;ratioP2;P2;SDS_P1;SDS_P2;PMS_P1;PMS_P2;Temp;Humidity;BMP_temperature;BMP_pressure;BME280_temperature;BME280_humidity;BME280_pressure;Samples;Min_cycle;Max_cycle;Signal;HPM_P1;HPM_P2
2023/07/20 00:00:08;;;;;;;2.85;1.48;;;14.90;99.90;;;;;;5031715;28;20239;-90
2023/07/20 00:02:37;;;;;;;1.95;1.50;;;14.90;99.90;;;;;;5046145;28;20215;-92
2023/07/20 00:05:04;;;;;;;1.25;1.15;;;14.80;99.90;;;;;;5051313;28;20201;-90
2023/07/20 00:07:30;;;;;;;1.30;1.20;;;14.80;99.90;;;;;;5053775;28;20200;-91
2023/07/20 00:09:57;;;;;;;1.70;1.20;;;14.80;99.90;;;;;;5045225;28;20205;-89
2023/07/20 00:12:24;;;;;;;1.38;1.27;;;14.80;99.90;;;;;;5045354;28;22571;-92
2023/07/20 00:14:53;;;;;;;1.05;1.05;;;14.80;99.90;;;;;;5050052;28;20278;-91
2023/07/20 00:17:20;;;;;;;3.70;1.45;;;14.80;99.90;;;;;;5036161;28;20975;-92
2023/07/20 00:19:49;;;;;;;1.30;1.20;;;;;;;;;;5052079;28;20200;-91
2023/07/20 00:22:15;;;;;;;6.28;1.20;;;14.80;99.90;;;;;;5048462;28;20400;-89
2023/07/20 00:24:42;;;;;;;1.10;1.00;;;14.80;99.90;;;;;;5047750;28;20204;-91
2023/07/20 00:27:09;;;;;;;1.38;1.08;;;14.80;99.90;;;;;;5043779;28;20424;-91
2023/07/20 00:29:36;;;;;;;1.52;1.30;;;15.60;99.90;;;;;;5046728;28;20772;-91
2023/07/20 00:32:05;;;;;;;1.13;1.10;;;14.90;99.90;;;;;;5028588;28;20206;-90
2023/07/20 00:34:32;;;;;;;1.75;1.30;;;14.80;99.90;;;;;;5044973;28;20220;-88
2023/07/20 00:37:00;;;;;;;1.42;1.30;;;15.00;99.90;;;;;;5049262;28;20251;-93
2023/07/20 00:39:27;;;;;;;1.42;1.30;;;15.10;99.90;;;;;;5038851;28;20235;-90
2023/07/20 00:41:54;;;;;;;3.15;1.70;;;15.00;99.90;;;;;;5053526;28;20204;-89
2023/07/20 00:44:20;;;;;;;2.53;1.67;;;15.00;99.90;;;;;;5036681;28;20688;-90
2023/07/20 00:46:47;;;;;;;1.50;1.40;;;15.00;99.90;;;;;;5029270;28;20197;-94
2023/07/20 00:49:15;;;;;;;1.92;1.80;;;14.90;99.90;;;;;;5042793;28;20232;-91
2023/07/20 00:51:42;;;;;;;2.15;1.90;;;14.90;99.90;;;;;;5051495;28;20197;-89
2023/07/20 00:54:11;;;;;;;1.98;1.77;;;14.90;99.90;;;;;;5050378;28;20196;-92
2023/07/20 00:56:37;;;;;;;1.98;1.83;;;14.90;99.90;;;;;;5043330;28;20227;-91
2023/07/20 00:59:05;;;;;;;3.75;1.80;;;14.90;99.90;;;;;;5040714;28;20634;-91
2023/07/20 01:01:32;;;;;;;2.00;1.60;;;14.90;99.90;;;;;;5014044;28;20256;-90
2023/07/20 01:03:59;;;;;;;2.92;1.65;;;14.90;99.90;;;;;;5044607;28;20849;-92
2023/07/20 01:06:32;;;;;;;2.55;1.52;;;15.00;99.90;;;;;;5048431;28;20197;-92
2023/07/20 01:09:09;;;;;;;1.65;1.55;;;15.00;99.90;;;;;;5049991;28;20660;-89
2023/07/20 01:11:43;;;;;;;2.10;1.90;;;14.90;99.90;;;;;;5034203;28;20703;-88
2023/07/20 01:14:10;;;;;;;2.35;1.70;;;14.90;99.90;;;;;;5047605;28;20205;-90
2023/07/20 01:16:37;;;;;;;3.85;1.50;;;14.90;99.90;;;;;;5019939;28;20992;-92
2023/07/20 01:19:04;;;;;;;2.67;1.77;;;14.90;99.90;;;;;;5048476;28;20209;-90
2023/07/20 01:21:38;;;;;;;2.03;1.85;;;15.10;99.90;;;;;;5047024;28;20193;-90
2023/07/20 01:24:31;;;;;;;2.28;1.67;;;15.00;99.90;;;;;;5046015;28;20208;-92
2023/07/20 01:27:32;;;;;;;1.60;1.50;;;14.80;99.90;;;;;;5043866;28;20216;-90
2023/07/20 01:30:15;;;;;;;3.47;1.60;;;14.80;99.90;;;;;;5050726;28;20612;-91
2023/07/20 01:32:45;;;;;;;1.63;1.52;;;14.80;99.90;;;;;;5023839;28;20423;-88
2023/07/20 01:35:15;;;;;;;1.60;1.50;;;14.80;99.90;;;;;;5043481;28;20231;-93
2023/07/20 01:37:46;;;;;;;2.92;1.40;;;14.80;99.90;;;;;;5052517;28;20200;-92
2023/07/20 01:40:15;;;;;;;1.88;1.40;;;14.80;99.90;;;;;;5052539;28;20204;-89
2023/07/20 01:42:46;;;;;;;1.52;1.42;;;14.80;99.90;;;;;;5047016;28;20216;-91
2023/07/20 01:45:13;;;;;;;3.63;1.08;;;15.00;99.90;;;;;;5051773;28;20196;-90
2023/07/20 01:47:39;;;;;;;1.88;1.33;;;14.70;99.90;;;;;;5048957;28;20233;-92
2023/07/20 01:50:09;;;;;;;1.58;1.23;;;14.80;99.90;;;;;;5030525;28;20807;-90
2023/07/20 01:52:36;;;;;;;1.33;1.23;;;14.80;99.90;;;;;;5046515;28;20382;-90
2023/07/20 01:55:04;;;;;;;2.17;1.30;;;14.80;99.90;;;;;;5066589;28;20200;-89
2023/07/20 01:57:31;;;;;;;1.50;1.40;;;14.80;99.90;;;;;;5050640;28;20232;-89
2023/07/20 01:59:57;;;;;;;1.92;1.52;;;14.80;99.90;;;;;;5051818;28;20197;-92
2023/07/20 02:02:27;;;;;;;1.75;1.42;;;14.80;99.90;;;;;;5040431;28;20203;-91
2023/07/20 02:04:54;;;;;;;1.40;1.30;;;14.80;99.90;;;;;;5029972;28;20209;-91
2023/07/20 02:07:22;;;;;;;1.30;1.20;;;14.90;99.90;;;;;;5047337;28;20201;-88
2023/07/20 02:09:49;;;;;;;1.83;1.67;;;14.90;99.90;;;;;;5050068;28;20190;-90
2023/07/20 02:12:16;;;;;;;1.63;1.52;;;14.80;99.90;;;;;;5034790;28;20201;-90
2023/07/20 02:14:43;;;;;;;1.42;1.33;;;14.90;99.90;;;;;;5045829;28;20823;-90
2023/07/20 02:17:11;;;;;;;1.50;1.40;;;;;;;;;;5034785;28;20225;-94
2023/07/20 02:19:38;;;;;;;1.65;1.25;;;14.90;99.90;;;;;;5011091;28;20515;-90
2023/07/20 02:22:06;;;;;;;5.07;1.75;;;14.80;99.90;;;;;;5041707;28;20224;-91
2023/07/20 02:24:34;;;;;;;1.95;1.58;;;14.80;99.90;;;;;;5043318;28;20535;-90
2023/07/20 02:27:01;;;;;;;2.35;1.30;;;14.80;99.90;;;;;;5040319;28;20206;-91
2023/07/20 02:29:28;;;;;;;1.88;1.70;;;14.90;99.90;;;;;;5045200;28;20205;-92
2023/07/20 02:31:55;;;;;;;1.50;1.40;;;14.80;99.90;;;;;;5044662;28;20246;-89
2023/07/20 02:34:22;;;;;;;2.67;1.80;;;;;;;;;;5034108;28;20228;-91
2023/07/20 02:36:49;;;;;;;1.65;1.55;;;14.80;99.90;;;;;;5029035;28;21252;-91
2023/07/20 02:39:15;;;;;;;3.25;2.15;;;14.80;99.90;;;;;;5042195;28;20653;-89
2023/07/20 02:41:44;;;;;;;7.82;1.90;;;14.80;99.90;;;;;;5047678;28;20377;-89
2023/07/20 02:44:10;;;;;;;3.13;1.90;;;14.80;99.90;;;;;;5036773;28;20232;-91
2023/07/20 02:46:38;;;;;;;2.25;1.92;;;14.80;99.90;;;;;;5043870;28;20387;-91
2023/07/20 02:49:05;;;;;;;1.98;1.83;;;14.80;99.90;;;;;;5044470;28;20348;-93
2023/07/20 02:51:32;;;;;;;2.58;1.63;;;14.80;99.90;;;;;;5020792;28;20422;-88
2023/07/20 02:53:58;;;;;;;2.10;1.90;;;14.90;99.90;;;;;;5050722;28;21008;-91
2023/07/20 02:56:25;;;;;;;5.18;2.00;;;15.50;99.90;;;;;;5046135;28;20608;-92
2023/07/20 02:58:54;;;;;;;3.05;2.25;;;14.80;99.90;;;;;;5037096;28;20300;-91
2023/07/20 03:01:21;;;;;;;2.80;1.85;;;14.80;99.90;;;;;;5040114;28;20212;-89
2023/07/20 03:03:48;;;;;;;3.40;1.88;;;14.80;99.90;;;;;;5043451;28;21032;-90
2023/07/20 03:06:15;;;;;;;4.43;2.10;;;14.80;99.90;;;;;;5035534;28;20213;-91
2023/07/20 03:08:47;;;;;;;4.03;1.90;;;;;;;;;;5035278;28;20209;-90
2023/07/20 03:11:14;;;;;;;2.50;1.80;;;14.70;99.90;;;;;;5049248;28;20205;-94
2023/07/20 03:13:41;;;;;;;2.92;2.13;;;15.00;99.90;;;;;;5047250;28;20427;-93
2023/07/20 03:16:11;;;;;;;3.47;2.00;;;14.70;99.90;;;;;;5043741;28;20330;-92
2023/07/20 03:18:38;;;;;;;4.63;1.90;;;14.70;99.90;;;;;;5048135;28;20212;-89
2023/07/20 03:21:05;;;;;;;3.20;2.35;;;14.70;99.90;;;;;;5035673;28;20220;-92
2023/07/20 03:23:32;;;;;;;2.40;2.20;;;14.60;99.90;;;;;;5030893;28;20354;-91
2023/07/20 03:25:59;;;;;;;7.35;2.10;;;14.60;99.90;;;;;;5054101;28;20201;-92
2023/07/20 03:28:26;;;;;;;2.67;2.47;;;;;;;;;;5042055;28;20205;-94
2023/07/20 03:30:55;;;;;;;2.28;2.03;;;14.50;99.90;;;;;;5042646;28;20652;-90
2023/07/20 03:33:26;;;;;;;2.42;2.08;;;14.70;99.90;;;;;;5046070;28;20938;-89
2023/07/20 03:35:54;;;;;;;2.30;2.00;;;14.60;99.90;;;;;;5037565;28;20634;-93
2023/07/20 03:38:20;;;;;;;5.95;2.20;;;14.50;99.90;;;;;;5027890;28;20235;-93
2023/07/20 03:40:51;;;;;;;4.20;2.20;;;14.60;99.90;;;;;;5051227;28;20227;-92
2023/07/20 03:43:18;;;;;;;6.72;2.17;;;14.50;99.90;;;;;;5048300;28;20431;-94
2023/07/20 03:45:47;;;;;;;3.58;2.40;;;14.60;99.90;;;;;;5036495;28;20220;-92
2023/07/20 03:48:14;;;;;;;4.88;2.50;;;14.60;99.90;;;;;;5048003;28;20229;-93
2023/07/20 03:50:43;;;;;;;3.15;2.30;;;;;;;;;;5033921;28;20205;-88
2023/07/20 03:53:10;;;;;;;7.40;2.30;;;14.40;99.90;;;;;;5035075;28;20205;-92
2023/07/20 03:55:37;;;;;;;2.53;2.20;;;;;;;;;;5049959;28;20199;-92
2023/07/20 03:58:05;;;;;;;2.60;2.13;;;14.30;99.90;;;;;;5039201;28;20236;-93
2023/07/20 04:00:31;;;;;;;3.30;2.45;;;14.40;99.90;;;;;;5046282;28;20691;-94
2023/07/20 04:02:59;;;;;;;4.20;2.55;;;;;;;;;;5031163;28;20214;-91
2023/07/20 04:05:26;;;;;;;3.10;2.35;;;14.30;99.90;;;;;;5032124;28;20706;-93
2023/07/20 04:07:54;;;;;;;2.35;2.15;;;14.40;99.90;;;;;;5021284;28;20200;-92
2023/07/20 04:10:21;;;;;;;2.72;2.30;;;14.40;99.90;;;;;;5035081;28;20197;-89
2023/07/20 04:12:48;;;;;;;4.40;2.20;;;14.40;99.90;;;;;;5060822;28;20424;-90
2023/07/20 04:15:15;;;;;;;3.22;2.42;;;14.90;99.90;;;;;;5050230;28;20425;-89
2023/07/20 04:17:42;;;;;;;4.00;2.40;;;14.30;99.90;;;;;;5061223;28;20232;-87
2023/07/20 04:20:09;;;;;;;2.90;2.60;;;14.40;99.90;;;;;;5038778;28;20209;-91
2023/07/20 04:22:36;;;;;;;7.47;2.20;;;14.40;99.90;;;;;;5051872;28;20207;-94
2023/07/20 04:25:05;;;;;;;3.55;2.33;;;14.40;99.90;;;;;;5020147;28;20216;-90
2023/07/20 04:27:32;;;;;;;2.53;2.33;;;14.40;99.90;;;;;;5048436;28;20197;-94
2023/07/20 04:30:00;;;;;;;3.20;2.55;;;14.40;99.90;;;;;;5031694;28;20213;-91
2023/07/20 04:32:27;;;;;;;2.95;2.60;;;14.40;99.90;;;;;;5038453;28;20526;-94
2023/07/20 04:34:54;;;;;;;6.95;3.10;;;14.20;99.90;;;;;;5041771;28;20626;-88
2023/07/20 04:37:21;;;;;;;2.60;2.40;;;14.40;99.90;;;;;;5028107;28;20465;-94
2023/07/20 04:39:48;;;;;;;3.40;2.50;;;14.40;99.90;;;;;;5047704;28;20639;-89
2023/07/20 04:42:16;;;;;;;3.83;2.25;;;14.40;99.90;;;;;;5030992;28;20209;-89
2023/07/20 04:44:43;;;;;;;3.10;2.50;;;15.00;99.90;;;;;;5043049;28;20240;-89
2023/07/20 04:47:10;;;;;;;4.50;2.28;;;14.50;99.90;;;;;;5046985;28;20223;-90
2023/07/20 04:49:37;;;;;;;3.58;2.28;;;14.50;99.90;;;;;;5046297;28;20935;-92
2023/07/20 04:52:04;;;;;;;2.50;2.30;;;14.50;99.90;;;;;;5044674;28;20204;-90
2023/07/20 04:54:31;;;;;;;4.40;2.53;;;14.50;99.90;;;;;;5028451;28;20208;-90
2023/07/20 04:56:58;;;;;;;3.53;2.10;;;14.60;99.90;;;;;;5027712;28;20224;-92
2023/07/20 04:59:27;;;;;;;2.38;2.15;;;;;;;;;;5053383;28;20216;-90
2023/07/20 05:01:53;;;;;;;2.80;2.58;;;14.60;99.90;;;;;;5037120;28;20204;-90
2023/07/20 05:04:20;;;;;;;3.22;1.80;;;14.60;99.90;;;;;;5040375;28;20235;-93
2023/07/20 05:06:47;;;;;;;2.28;2.05;;;14.70;99.90;;;;;;5056607;28;20714;-88
2023/07/20 05:09:14;;;;;;;2.00;1.70;;;14.60;99.90;;;;;;5027033;28;20662;-89
2023/07/20 05:11:41;;;;;;;2.03;1.83;;;14.70;99.90;;;;;;5028077;28;20679;-91
2023/07/20 05:14:08;;;;;;;3.08;1.80;;;14.70;99.90;;;;;;5051461;28;20219;-90
2023/07/20 05:16:36;;;;;;;2.20;2.00;;;14.70;99.90;;;;;;5044283;28;20453;-93
2023/07/20 05:19:03;;;;;;;2.53;1.92;;;14.80;99.90;;;;;;5044229;28;20205;-90
2023/07/20 05:21:30;;;;;;;3.15;1.92;;;14.80;99.90;;;;;;5038711;28;20211;-89
2023/07/20 05:23:57;;;;;;;2.72;1.83;;;14.80;99.90;;;;;;5046519;28;20196;-87
2023/07/20 05:26:24;;;;;;;2.85;1.90;;;14.80;99.90;;;;;;5007913;28;20205;-89
2023/07/20 05:28:51;;;;;;;2.72;2.00;;;14.90;99.90;;;;;;5035977;28;20317;-90
2023/07/20 05:31:18;;;;;;;3.53;1.83;;;14.80;99.90;;;;;;5038677;28;20208;-88
2023/07/20 05:33:46;;;;;;;5.07;1.50;;;14.80;99.90;;;;;;5039107;28;20695;-85
2023/07/20 05:36:13;;;;;;;2.85;1.50;;;14.90;99.90;;;;;;5038200;28;20225;-89
2023/07/20 05:38:40;;;;;;;3.08;1.40;;;14.90;99.90;;;;;;5040873;28;20394;-90
2023/07/20 05:41:10;;;;;;;1.77;1.65;;;14.70;99.90;;;;;;5036243;28;20216;-88
2023/07/20 05:43:37;;;;;;;1.85;1.45;;;14.50;99.90;;;;;;5009646;28;20209;-87
2023/07/20 05:46:05;;;;;;;1.77;1.52;;;14.50;99.90;;;;;;5040329;28;20204;-86
2023/07/20 05:48:32;;;;;;;2.90;1.42;;;14.50;99.90;;;;;;5040124;28;20228;-86
2023/07/20 05:51:00;;;;;;;3.15;1.77;;;14.50;99.90;;;;;;5044812;28;20213;-88
2023/07/20 05:53:27;;;;;;;2.78;1.92;;;14.70;99.90;;;;;;5038979;28;20204;-90
2023/07/20 05:55:54;;;;;;;1.80;1.42;;;14.60;99.90;;;;;;5030751;28;20897;-89
2023/07/20 05:58:22;;;;;;;2.22;1.95;;;14.60;99.90;;;;;;5017915;28;20225;-89
2023/07/20 06:00:50;;;;;;;4.55;2.13;;;14.60;99.90;;;;;;5039322;28;20521;-87
2023/07/20 06:03:17;;;;;;;1.90;1.52;;;14.70;99.90;;;;;;5029161;28;20665;-89
2023/07/20 06:05:44;;;;;;;3.40;1.70;;;14.50;99.90;;;;;;5046151;28;20427;-90
2023/07/20 06:08:12;;;;;;;3.72;1.65;;;14.60;99.90;;;;;;5048051;28;20220;-90
2023/07/20 06:10:39;;;;;;;3.85;1.48;;;14.60;99.90;;;;;;5027843;28;20609;-88
2023/07/20 06:13:06;;;;;;;1.80;1.67;;;14.60;99.90;;;;;;5035066;28;20300;-87
2023/07/20 06:15:35;;;;;;;4.95;2.17;;;14.70;99.90;;;;;;5021542;28;20315;-86
2023/07/20 06:18:03;;;;;;;1.83;1.27;;;14.70;99.90;;;;;;5037583;28;20297;-88
2023/07/20 06:20:31;;;;;;;3.35;1.65;;;14.70;99.90;;;;;;5046522;28;20201;-85
2023/07/20 06:22:58;;;;;;;1.90;1.33;;;14.70;99.90;;;;;;5044235;28;20204;-85
2023/07/20 06:25:26;;;;;;;2.58;1.20;;;14.80;99.90;;;;;;5040776;28;20205;-89
2023/07/20 06:27:53;;;;;;;1.38;1.20;;;14.80;99.90;;;;;;5042058;28;20873;-85
2023/07/20 06:30:20;;;;;;;1.50;1.40;;;14.90;99.90;;;;;;5028192;28;20359;-85
2023/07/20 06:32:47;;;;;;;3.55;1.23;;;14.90;99.90;;;;;;5038518;28;20240;-85
2023/07/20 06:35:15;;;;;;;1.83;1.10;;;15.00;99.90;;;;;;5048152;28;20228;-86
2023/07/20 06:37:42;;;;;;;1.90;1.80;;;15.00;99.90;;;;;;5054834;28;20232;-87
2023/07/20 06:40:10;;;;;;;1.63;1.40;;;15.20;99.90;;;;;;5039695;28;20329;-85
2023/07/20 06:42:38;;;;;;;1.88;1.30;;;15.20;99.90;;;;;;5042951;28;20210;-89
2023/07/20 06:45:06;;;;;;;1.83;1.30;;;15.30;99.90;;;;;;5028755;28;20701;-86
2023/07/20 06:47:32;;;;;;;3.72;1.30;;;15.30;99.90;;;;;;5031142;28;20212;-86
2023/07/20 06:49:59;;;;;;;2.70;0.98;;;15.30;99.90;;;;;;5038467;28;20308;-85
2023/07/20 06:52:26;;;;;;;3.15;1.13;;;15.40;99.90;;;;;;5045495;28;20205;-87
2023/07/20 06:54:53;;;;;;;3.05;1.30;;;15.40;99.90;;;;;;5029953;28;20209;-89
2023/07/20 06:57:20;;;;;;;1.92;1.20;;;15.50;99.90;;;;;;5032846;28;20402;-89
2023/07/20 06:59:48;;;;;;;5.60;1.10;;;;;;;;;;5049706;28;20555;-89
2023/07/20 07:02:15;;;;;;;2.40;1.17;;;15.60;99.90;;;;;;5014934;28;20862;-90
2023/07/20 07:04:42;;;;;;;1.70;1.52;;;15.70;99.90;;;;;;5042849;28;20211;-88
2023/07/20 07:07:10;;;;;;;2.13;1.13;;;15.80;99.90;;;;;;5039246;28;21336;-85
2023/07/20 07:09:36;;;;;;;1.65;0.90;;;15.80;99.90;;;;;;5029876;28;20212;-87
2023/07/20 07:12:04;;;;;;;1.70;1.00;;;15.90;99.90;;;;;;5041091;28;20204;-87
2023/07/20 07:14:30;;;;;;;2.40;1.00;;;15.90;99.90;;;;;;5029065;28;20980;-89
2023/07/20 07:16:59;;;;;;;3.80;1.20;;;16.00;99.90;;;;;;5018338;28;20216;-90
2023/07/20 07:19:25;;;;;;;3.45;1.10;;;16.10;99.90;;;;;;5019975;28;20235;-87
2023/07/20 07:21:52;;;;;;;1.63;1.17;;;16.10;99.90;;;;;;5037602;28;20207;-85
2023/07/20 07:24:19;;;;;;;6.97;1.50;;;16.10;99.90;;;;;;5023558;28;20836;-89
2023/07/20 07:26:46;;;;;;;2.55;1.40;;;16.20;99.90;;;;;;5044776;28;20201;-86
2023/07/20 07:29:13;;;;;;;1.58;1.35;;;16.30;99.90;;;;;;5033930;28;20204;-86
2023/07/20 07:31:40;;;;;;;3.22;1.75;;;16.30;99.90;;;;;;5024863;28;20735;-88
2023/07/20 07:34:08;;;;;;;3.83;1.75;;;16.40;99.90;;;;;;5039126;28;20208;-89
2023/07/20 07:36:35;;;;;;;4.30;1.70;;;16.40;99.90;;;;;;5037718;28;20579;-90
2023/07/20 07:39:02;;;;;;;4.32;1.63;;;16.40;99.90;;;;;;5051139;28;20236;-89
2023/07/20 07:41:29;;;;;;;2.05;1.35;;;16.50;99.90;;;;;;5043111;28;20505;-85
2023/07/20 07:43:56;;;;;;;3.38;1.45;;;16.50;99.90;;;;;;5034288;28;20412;-90
2023/07/20 07:46:23;;;;;;;1.95;1.50;;;16.60;99.90;;;;;;5040977;28;20220;-86
2023/07/20 07:48:50;;;;;;;5.25;1.50;;;16.40;99.90;;;;;;5005669;28;20350;-89
2023/07/20 07:51:18;;;;;;;3.83;1.65;;;16.50;99.90;;;;;;5013736;28;20212;-88
2023/07/20 07:53:46;;;;;;;9.13;2.10;;;16.50;99.90;;;;;;5050325;28;20404;-89
2023/07/20 07:56:13;;;;;;;4.70;1.83;;;16.40;99.90;;;;;;5030694;28;20879;-88
2023/07/20 07:58:40;;;;;;;7.28;2.30;;;16.50;99.90;;;;;;5038980;28;20221;-89
2023/07/20 08:01:07;;;;;;;3.00;1.73;;;16.50;99.90;;;;;;5049962;28;20600;-89
2023/07/20 08:03:35;;;;;;;4.68;2.13;;;16.50;99.90;;;;;;5019291;28;20476;-87
2023/07/20 08:06:04;;;;;;;4.35;2.00;;;16.50;99.90;;;;;;5045309;28;20204;-90
2023/07/20 08:08:32;;;;;;;4.20;1.65;;;16.80;99.90;;;;;;5042362;28;20538;-87
2023/07/20 08:10:59;;;;;;;4.78;1.73;;;16.80;99.90;;;;;;5039976;28;20292;-87
2023/07/20 08:13:26;;;;;;;4.35;1.60;;;16.90;99.90;;;;;;5039739;28;20200;-90
2023/07/20 08:15:54;;;;;;;1.88;1.50;;;16.90;99.90;;;;;;5028291;28;20209;-87
2023/07/20 08:18:21;;;;;;;6.35;2.15;;;17.00;99.90;;;;;;5024382;28;20228;-87
2023/07/20 08:20:49;;;;;;;3.97;2.15;;;17.00;99.90;;;;;;5040251;28;20386;-88
2023/07/20 08:23:16;;;;;;;5.00;2.08;;;17.00;99.90;;;;;;5019994;28;20370;-89
2023/07/20 08:25:44;;;;;;;4.90;1.77;;;17.00;99.90;;;;;;5029135;28;20213;-90
2023/07/20 08:28:13;;;;;;;3.05;1.77;;;17.00;99.90;;;;;;5035555;28;20711;-90
2023/07/20 08:30:43;;;;;;;4.57;2.35;;;17.10;99.90;;;;;;5035830;28;20272;-87
2023/07/20 08:33:11;;;;;;;5.93;1.90;;;17.10;99.90;;;;;;5018160;28;20516;-88
2023/07/20 08:35:38;;;;;;;5.85;1.80;;;17.10;99.90;;;;;;5037993;28;20233;-88
2023/07/20 08:38:05;;;;;;;1.60;1.30;;;17.00;99.90;;;;;;5032972;28;20743;-87
2023/07/20 08:40:32;;;;;;;3.05;1.85;;;17.10;99.90;;;;;;5035446;28;20204;-87
2023/07/20 08:43:01;;;;;;;2.88;1.67;;;17.20;99.90;;;;;;4997895;28;20201;-88
2023/07/20 08:45:30;;;;;;;3.60;1.70;;;17.40;99.90;;;;;;5030435;28;21082;-87
2023/07/20 08:47:59;;;;;;;5.72;2.30;;;17.40;99.90;;;;;;5045245;28;20235;-90
2023/07/20 08:50:28;;;;;;;3.58;2.03;;;17.40;99.90;;;;;;5007928;28;20220;-88
2023/07/20 08:52:57;;;;;;;3.42;1.63;;;17.50;99.90;;;;;;5026723;28;20307;-88
2023/07/20 08:55:24;;;;;;;4.97;1.65;;;17.60;99.90;;;;;;5038631;28;20339;-89
2023/07/20 08:57:55;;;;;;;8.98;1.45;;;17.70;99.90;;;;;;5029005;28;20229;-91
2023/07/20 09:00:24;;;;;;;3.70;1.95;;;17.60;99.90;;;;;;5018088;28;20205;-88
2023/07/20 09:02:54;;;;;;;4.32;1.90;;;17.50;99.90;;;;;;5044421;28;20283;-87
2023/07/20 09:05:23;;;;;;;2.50;1.40;;;17.30;99.90;;;;;;5018494;28;20224;-87
2023/07/20 09:07:50;;;;;;;2.75;1.75;;;17.30;99.90;;;;;;5037286;28;20273;-87
2023/07/20 09:10:17;;;;;;;4.05;1.70;;;17.30;99.90;;;;;;5030230;28;20201;-86
2023/07/20 09:12:45;;;;;;;2.95;1.70;;;17.40;99.90;;;;;;5038028;28;20208;-89
2023/07/20 09:15:12;;;;;;;3.13;1.70;;;17.30;99.90;;;;;;5025179;28;20714;-85
2023/07/20 09:17:46;;;;;;;6.43;1.65;;;17.20;99.90;;;;;;5032863;28;20235;-90
2023/07/20 09:20:15;;;;;;;4.25;1.65;;;17.10;99.90;;;;;;5017428;28;20328;-86
2023/07/20 09:22:43;;;;;;;4.25;1.52;;;17.00;99.90;;;;;;5019117;28;20197;-89
2023/07/20 09:25:14;;;;;;;1.30;1.08;;;17.00;99.90;;;;;;5035695;28;20216;-91
2023/07/20 09:27:41;;;;;;;2.30;1.00;;;17.00;99.90;;;;;;5039008;28;20644;-87
2023/07/20 09:30:11;;;;;;;1.75;1.20;;;17.10;99.90;;;;;;5023763;28;20208;-89
2023/07/20 09:32:43;;;;;;;1.90;1.27;;;17.20;99.90;;;;;;5035192;28;20295;-87
2023/07/20 09:35:17;;;;;;;3.47;1.23;;;17.30;99.90;;;;;;5032533;28;20212;-88
2023/07/20 09:37:51;;;;;;;5.63;1.65;;;17.40;99.90;;;;;;5035057;28;20201;-91
2023/07/20 09:40:18;;;;;;;2.05;1.45;;;17.40;99.90;;;;;;5040485;28;20212;-91
2023/07/20 09:42:45;;;;;;;2.13;1.20;;;17.50;99.90;;;;;;5047696;28;20209;-90
2023/07/20 09:45:12;;;;;;;3.53;1.40;;;17.60;99.90;;;;;;5032783;28;20676;-89
2023/07/20 09:47:40;;;;;;;4.35;1.58;;;17.70;99.90;;;;;;5021714;28;20221;-89
2023/07/20 09:50:11;;;;;;;3.03;1.60;;;17.70;99.90;;;;;;5035092;28;20213;-88
2023/07/20 09:52:44;;;;;;;5.50;1.20;;;17.90;99.90;;;;;;5003712;28;20236;-91
2023/07/20 09:55:12;;;;;;;1.80;1.00;;;18.00;99.90;;;;;;5035033;28;20201;-89
2023/07/20 09:57:39;;;;;;;2.67;1.30;;;18.10;99.90;;;;;;5005104;28;20597;-89
2023/07/20 10:00:12;;;;;;;1.13;1.02;;;18.30;99.90;;;;;;5040319;28;20208;-87
2023/07/20 10:02:44;;;;;;;4.32;1.00;;;18.40;99.90;;;;;;5010211;28;20205;-88
2023/07/20 10:05:14;;;;;;;4.32;1.20;;;18.30;99.90;;;;;;5038173;28;20211;-90
2023/07/20 10:07:46;;;;;;;1.65;0.98;;;18.40;99.90;;;;;;5027025;28;20651;-87
2023/07/20 10:10:16;;;;;;;3.00;1.25;;;18.70;99.90;;;;;;5044167;28;20210;-90
2023/07/20 10:12:44;;;;;;;2.00;1.08;;;18.70;99.90;;;;;;5042810;28;20208;-88
2023/07/20 10:15:16;;;;;;;1.63;1.00;;;18.90;99.90;;;;;;5046192;28;20203;-88
2023/07/20 10:17:54;;;;;;;3.83;1.00;;;18.80;99.90;;;;;;5024812;28;20363;-87
2023/07/20 10:20:22;;;;;;;2.13;1.02;;;18.80;99.90;;;;;;5031914;28;20297;-88
2023/07/20 10:22:52;;;;;;;4.53;1.23;;;18.60;99.90;;;;;;5010193;28;20221;-91
2023/07/20 10:25:21;;;;;;;4.03;1.10;;;18.60;99.90;;;;;;5034298;28;20209;-88
2023/07/20 10:27:49;;;;;;;5.50;1.30;;;18.60;99.90;;;;;;5031557;28;20870;-88
2023/07/20 10:30:16;;;;;;;3.92;1.70;;;18.60;99.90;;;;;;5052822;28;20200;-88
2023/07/20 10:32:44;;;;;;;3.53;1.17;;;18.30;99.90;;;;;;5019425;28;20985;-87
2023/07/20 10:35:14;;;;;;;8.57;1.30;;;18.10;99.90;;;;;;5045658;28;20201;-87
2023/07/20 10:37:51;;;;;;;4.10;1.33;;;18.30;99.90;;;;;;5021665;28;20270;-88
2023/07/20 10:40:30;;;;;;;5.13;1.05;;;18.40;99.90;;;;;;5034267;28;20219;-86
2023/07/20 10:43:03;;;;;;;3.50;0.95;;;18.50;99.90;;;;;;5033121;28;20387;-88
2023/07/20 10:45:51;;;;;;;2.30;1.10;;;18.60;99.90;;;;;;5038521;28;20582;-86
2023/07/20 10:48:20;;;;;;;4.00;1.27;;;18.70;99.90;;;;;;5030424;28;20225;-86
2023/07/20 10:51:09;;;;;;;3.55;1.10;;;18.60;99.90;;;;;;5032073;28;20554;-86
2023/07/20 10:53:38;;;;;;;2.67;0.80;;;18.40;99.90;;;;;;5005861;28;20217;-87
2023/07/20 10:56:09;;;;;;;8.85;0.93;;;18.30;99.90;;;;;;5023359;28;20381;-90
2023/07/20 10:58:36;;;;;;;0.85;0.85;;;18.00;99.90;;;;;;4997085;28;20232;-88
2023/07/20 11:01:06;;;;;;;2.10;0.80;;;17.70;99.90;;;;;;5038956;28;20652;-87
2023/07/20 11:03:36;;;;;;;3.85;1.55;;;17.30;99.90;;;;;;5030341;28;20220;-88
2023/07/20 11:06:31;;;;;;;2.50;1.10;;;17.20;99.90;;;;;;5028661;28;20300;-88
2023/07/20 11:09:07;;;;;;;2.70;1.10;;;17.10;99.90;;;;;;5028477;28;20208;-89
2023/07/20 11:11:35;;;;;;;2.17;1.13;;;17.20;99.90;;;;;;5046146;28;20676;-89
2023/07/20 11:14:04;;;;;;;0.95;0.68;;;17.40;99.90;;;;;;5044942;28;20201;-91
2023/07/20 11:16:36;;;;;;;3.58;1.35;;;17.60;99.90;;;;;;5050804;28;20212;-89
2023/07/20 11:19:03;;;;;;;7.45;1.02;;;18.00;99.90;;;;;;5035927;28;20687;-90
2023/07/20 11:21:36;;;;;;;2.70;1.08;;;18.20;99.90;;;;;;5049959;28;20769;-87
2023/07/20 11:24:07;;;;;;;6.85;1.13;;;18.30;99.90;;;;;;5021163;28;20236;-88
2023/07/20 11:26:42;;;;;;;3.20;0.95;;;18.50;99.90;;;;;;5045964;28;20205;-89
2023/07/20 11:29:08;;;;;;;3.42;1.13;;;18.60;99.90;;;;;;5048534;28;20216;-88
2023/07/20 11:31:37;;;;;;;1.08;0.80;;;18.50;99.90;;;;;;5052802;28;20197;-90
2023/07/20 11:34:04;;;;;;;2.65;0.93;;;18.00;99.90;;;;;;5047531;28;20603;-85
2023/07/20 11:36:31;;;;;;;3.20;1.02;;;17.80;99.90;;;;;;5033590;28;20243;-90
2023/07/20 11:38:58;;;;;;;2.05;1.10;;;17.60;99.90;;;;;;5025695;28;20220;-88
2023/07/20 11:41:27;;;;;;;2.00;0.82;;;;;;;;;;5056021;28;20208;-88
2023/07/20 11:43:55;;;;;;;2.08;1.08;;;17.20;99.90;;;;;;5042055;28;20232;-90
2023/07/20 11:46:22;;;;;;;1.92;0.98;;;17.00;99.90;;;;;;5042681;28;21014;-90
2023/07/20 11:48:49;;;;;;;0.82;0.75;;;;;;;;;;5042443;28;20581;-88
2023/07/20 11:51:17;;;;;;;3.75;1.00;;;16.90;99.90;;;;;;5035625;28;20209;-85
2023/07/20 11:53:46;;;;;;;3.50;1.27;;;17.00;99.90;;;;;;5046379;28;20197;-89
2023/07/20 11:56:13;;;;;;;0.75;0.75;;;17.10;99.90;;;;;;5024444;28;20220;-91
2023/07/20 11:58:45;;;;;;;5.68;0.93;;;17.20;99.90;;;;;;5035284;28;20609;-89
2023/07/20 12:01:13;;;;;;;2.65;1.10;;;17.30;99.90;;;;;;5040966;28;20211;-92
2023/07/20 12:03:40;;;;;;;2.25;1.23;;;17.20;99.90;;;;;;5042920;28;20212;-88
2023/07/20 12:06:08;;;;;;;1.15;0.90;;;17.40;99.90;;;;;;5017413;28;20212;-88
2023/07/20 12:08:35;;;;;;;1.92;0.95;;;17.60;99.90;;;;;;5035591;28;20197;-89
2023/07/20 12:11:02;;;;;;;2.58;0.77;;;17.80;99.90;;;;;;5021166;28;20220;-90
2023/07/20 12:13:38;;;;;;;2.53;0.98;;;17.90;99.90;;;;;;5036389;28;20649;-89
2023/07/20 12:16:11;;;;;;;4.90;1.13;;;17.90;99.90;;;;;;5044551;28;20205;-91
2023/07/20 12:18:38;;;;;;;3.03;1.05;;;17.90;99.90;;;;;;5035236;28;20225;-88
2023/07/20 12:21:06;;;;;;;4.20;1.00;;;18.00;99.90;;;;;;5024412;28;20528;-88
2023/07/20 12:23:37;;;;;;;2.20;1.13;;;18.10;99.90;;;;;;5044564;28;20209;-91
2023/07/20 12:26:08;;;;;;;1.40;0.70;;;18.00;99.90;;;;;;5045733;28;20217;-88
2023/07/20 12:28:39;;;;;;;3.22;1.25;;;18.00;99.90;;;;;;5027330;28;20219;-86
2023/07/20 12:31:06;;;;;;;3.35;1.10;;;18.00;99.90;;;;;;5031251;28;20206;-91
2023/07/20 12:33:34;;;;;;;2.72;1.30;;;18.10;99.90;;;;;;5032110;28;20201;-90
2023/07/20 12:36:01;;;;;;;1.75;0.85;;;18.00;99.90;;;;;;5035079;28;21041;-88
2023/07/20 12:38:30;;;;;;;2.00;0.90;;;18.10;99.90;;;;;;5046408;28;20243;-89
2023/07/20 12:40:58;;;;;;;1.83;0.93;;;18.20;99.90;;;;;;5022376;28;20263;-91
2023/07/20 12:43:25;;;;;;;3.65;1.05;;;;;;;;;;5021111;28;20264;-88
2023/07/20 12:45:52;;;;;;;3.75;1.00;;;18.40;99.90;;;;;;5030442;28;20205;-88
2023/07/20 12:48:19;;;;;;;3.38;1.00;;;18.40;99.90;;;;;;5037731;28;20247;-89
2023/07/20 12:50:48;;;;;;;3.20;1.02;;;18.40;99.90;;;;;;5032327;28;20204;-88
2023/07/20 12:53:15;;;;;;;5.80;1.00;;;18.50;99.90;;;;;;5028864;28;20591;-91
2023/07/20 12:55:42;;;;;;;2.20;1.00;;;18.40;99.90;;;;;;5025185;28;20568;-89